createdAt,value
2019-03-02T00:02:25.229Z,8.20
2019-03-02T00:04:55.386Z,8.20
2019-03-02T00:07:25.339Z,8.20
2019-03-02T00:09:55.324Z,8.19
2019-03-02T00:12:25.201Z,8.19
2019-03-02T00:14:55.174Z,8.17
2019-03-02T00:17:25.134Z,8.17
2019-03-02T00:19:55.031Z,8.18
2019-03-02T00:22:25.261Z,8.19
2019-03-02T00:24:57.999Z,8.19
2019-03-02T00:27:27.188Z,8.17
2019-03-02T00:29:57.540Z,8.14
2019-03-02T00:32:27.531Z,8.15
2019-03-02T00:34:57.714Z,8.16
2019-03-02T00:37:29.626Z,8.15
2019-03-02T00:39:59.630Z,8.15
2019-03-02T00:42:29.576Z,8.15
2019-03-02T00:44:59.589Z,8.16
2019-03-02T00:47:31.726Z,8.16
2019-03-02T00:50:02.510Z,8.15
2019-03-02T00:52:32.465Z,8.17
2019-03-02T00:55:02.461Z,8.15
2019-03-02T00:57:32.505Z,8.17
2019-03-02T01:00:02.393Z,8.19
2019-03-02T01:02:36.804Z,8.20
2019-03-02T01:05:06.414Z,8.20
2019-03-02T01:07:36.618Z,8.19
2019-03-02T01:10:08.723Z,8.18
2019-03-02T01:12:40.440Z,8.19
2019-03-02T01:15:12.515Z,8.18
2019-03-02T01:17:42.625Z,8.17
2019-03-02T01:20:13.828Z,8.16
2019-03-02T01:22:44.153Z,8.13
2019-03-02T01:25:15.971Z,8.12
2019-03-02T01:27:46.189Z,8.11
2019-03-02T01:30:17.493Z,8.05
2019-03-02T01:32:48.733Z,8.03
2019-03-02T01:35:20.246Z,8.02
2019-03-02T01:37:50.835Z,7.99
2019-03-02T01:40:20.792Z,7.99
2019-03-02T01:42:50.987Z,7.98
2019-03-02T01:45:23.998Z,7.98
2019-03-02T01:47:53.058Z,8.00
2019-03-02T01:50:23.079Z,8.01
2019-03-02T01:52:53.040Z,8.05
2019-03-02T01:55:23.465Z,8.10
2019-03-02T01:57:53.348Z,8.11
2019-03-02T02:00:28.175Z,8.10
2019-03-02T02:02:58.702Z,8.12
2019-03-02T02:05:31.980Z,8.15
2019-03-02T02:08:00.813Z,8.17
2019-03-02T02:10:31.929Z,8.16
2019-03-02T02:13:02.804Z,8.11
2019-03-02T02:15:33.559Z,8.09
2019-03-02T02:18:03.607Z,8.10
2019-03-02T02:20:33.573Z,8.11
2019-03-02T02:23:03.541Z,8.09
2019-03-02T02:25:35.684Z,8.07
2019-03-02T02:28:05.414Z,8.01
2019-03-02T02:30:35.472Z,7.99
2019-03-02T02:33:06.061Z,8.01
2019-03-02T02:35:40.228Z,8.04
2019-03-02T02:38:11.075Z,8.04
2019-03-02T02:40:39.967Z,8.03
2019-03-02T02:43:10.324Z,7.98
2019-03-02T02:45:40.638Z,7.99
2019-03-02T02:48:10.634Z,8.01
2019-03-02T02:50:43.019Z,8.02
2019-03-02T02:53:13.093Z,8.00
2019-03-02T02:55:43.062Z,8.00
2019-03-02T02:58:17.570Z,8.02
2019-03-02T03:00:50.216Z,8.04
2019-03-02T03:03:20.963Z,8.03
2019-03-02T03:05:54.255Z,8.03
2019-03-02T03:08:22.773Z,8.04
2019-03-02T03:10:53.286Z,8.05
2019-03-02T03:13:23.839Z,8.06
2019-03-02T03:15:53.813Z,8.08
2019-03-02T03:18:23.826Z,8.10
2019-03-02T03:20:53.850Z,8.07
2019-03-02T03:23:24.950Z,8.09
2019-03-02T03:25:57.090Z,8.09
2019-03-02T03:28:30.581Z,8.05
2019-03-02T03:30:58.980Z,8.01
2019-03-02T03:33:42.257Z,8.00
2019-03-02T03:36:00.624Z,8.00
2019-03-02T03:38:30.971Z,8.02
2019-03-02T03:41:05.258Z,8.00
2019-03-02T03:43:41.864Z,7.98
2019-03-02T03:46:04.631Z,7.96
2019-03-02T03:48:34.931Z,7.98
2019-03-02T03:51:04.910Z,8.00
2019-03-02T03:53:35.117Z,8.01
2019-03-02T03:56:05.582Z,8.01
2019-03-02T03:58:40.065Z,8.02
2019-03-02T04:01:07.395Z,8.03
2019-03-02T04:03:37.509Z,8.02
2019-03-02T04:06:07.505Z,8.00
2019-03-02T04:08:37.470Z,7.99
2019-03-02T04:11:07.443Z,7.97
2019-03-02T04:13:44.123Z,7.98
2019-03-02T04:16:08.986Z,7.99
2019-03-02T04:18:58.918Z,7.97
2019-03-02T04:21:43.426Z,7.93
2019-03-02T04:24:13.780Z,7.94
2019-03-02T04:26:43.766Z,7.97
2019-03-02T04:29:13.702Z,7.97
2019-03-02T04:31:48.157Z,7.99
2019-03-02T04:34:20.573Z,8.03
2019-03-02T04:36:47.698Z,8.07
2019-03-02T04:39:18.612Z,8.11
2019-03-02T04:41:48.579Z,8.12
2019-03-02T04:44:18.481Z,8.11
2019-03-02T04:46:51.417Z,8.13
2019-03-02T04:49:20.086Z,8.14
2019-03-02T04:51:50.592Z,8.16
2019-03-02T04:54:20.494Z,8.18
2019-03-02T04:56:50.465Z,8.19
2019-03-02T04:59:21.999Z,8.21
2019-03-02T05:01:52.407Z,8.23
2019-03-02T05:04:22.750Z,8.23
2019-03-02T05:06:54.538Z,8.23
2019-03-02T05:09:24.729Z,8.23
2019-03-02T05:11:54.941Z,8.24
2019-03-02T05:14:24.937Z,8.24
2019-03-02T05:16:55.289Z,8.23
2019-03-02T05:19:25.653Z,8.24
2019-03-02T05:21:57.590Z,8.26
2019-03-02T05:24:27.762Z,8.27
2019-03-02T05:26:57.721Z,8.27
2019-03-02T05:29:27.927Z,8.27
2019-03-02T05:31:57.811Z,8.26
2019-03-02T05:34:27.777Z,8.25
2019-03-02T05:36:59.738Z,8.25
2019-03-02T05:39:29.173Z,8.24
2019-03-02T05:41:59.153Z,8.21
2019-03-02T05:44:29.365Z,8.24
2019-03-02T05:47:01.472Z,8.25
2019-03-02T05:49:31.135Z,8.26
2019-03-02T05:52:00.929Z,8.26
2019-03-02T05:54:31.227Z,8.27
2019-03-02T05:57:04.142Z,8.27
2019-03-02T05:59:33.325Z,8.28
2019-03-02T06:02:03.286Z,8.28
2019-03-02T06:04:34.972Z,8.29
2019-03-02T06:07:04.952Z,8.27
2019-03-02T06:09:35.102Z,8.28
2019-03-02T06:12:05.089Z,8.28
2019-03-02T06:14:36.574Z,8.28
2019-03-02T06:17:06.850Z,8.28
2019-03-02T06:19:37.704Z,8.29
2019-03-02T06:22:07.717Z,8.27
2019-03-02T06:24:41.130Z,8.28
2019-03-02T06:27:10.934Z,8.25
2019-03-02T06:29:41.720Z,8.24
2019-03-02T06:32:11.714Z,8.22
2019-03-02T06:34:41.710Z,8.23
2019-03-02T06:37:11.580Z,8.25
2019-03-02T06:39:44.492Z,8.25
2019-03-02T06:42:13.387Z,8.27
2019-03-02T06:44:43.351Z,8.27
2019-03-02T06:47:13.306Z,8.28
2019-03-02T06:49:43.182Z,8.29
2019-03-02T06:52:13.149Z,8.31
2019-03-02T06:54:44.972Z,8.29
2019-03-02T06:57:15.049Z,8.29
2019-03-02T06:59:45.076Z,8.27
2019-03-02T07:02:15.344Z,8.26
2019-03-02T07:04:45.223Z,8.26
2019-03-02T07:07:15.262Z,8.28
2019-03-02T07:09:46.125Z,8.28
2019-03-02T07:12:16.041Z,8.28
2019-03-02T07:14:45.993Z,8.30
2019-03-02T07:17:19.711Z,8.30
2019-03-02T07:19:57.200Z,8.31
2019-03-02T07:22:27.126Z,8.32
2019-03-02T07:24:57.003Z,8.34
2019-03-02T07:27:29.605Z,8.35
2019-03-02T07:29:59.045Z,8.36
2019-03-02T07:32:29.016Z,8.37
2019-03-02T07:34:58.907Z,8.39
2019-03-02T07:37:28.914Z,8.40
2019-03-02T07:39:58.808Z,8.42
2019-03-02T07:42:29.898Z,8.44
2019-03-02T07:45:01.094Z,8.44
2019-03-02T07:47:31.734Z,8.46
2019-03-02T07:50:01.975Z,8.48
2019-03-02T07:52:32.021Z,8.49
2019-03-02T07:55:02.289Z,8.51
2019-03-02T07:57:33.733Z,8.52
2019-03-02T08:00:05.546Z,8.55
2019-03-02T08:02:37.407Z,8.53
2019-03-02T08:05:10.895Z,8.51
2019-03-02T08:07:39.362Z,8.52
2019-03-02T08:10:11.242Z,8.53
2019-03-02T08:12:42.291Z,8.54
2019-03-02T08:15:14.827Z,8.56
2019-03-02T08:17:45.675Z,8.59
2019-03-02T08:20:17.030Z,8.61
2019-03-02T08:22:48.066Z,8.62
2019-03-02T08:25:18.035Z,8.62
2019-03-02T08:27:51.202Z,8.64
2019-03-02T08:30:20.876Z,8.66
2019-03-02T08:32:54.074Z,8.70
2019-03-02T08:35:22.631Z,8.73
2019-03-02T08:37:53.249Z,8.77
2019-03-02T08:40:24.501Z,8.79
2019-03-02T08:42:55.230Z,8.80
2019-03-02T08:45:27.724Z,8.81
2019-03-02T08:47:56.890Z,8.83
2019-03-02T08:50:26.847Z,8.85
2019-03-02T08:52:56.731Z,8.86
2019-03-02T08:55:29.826Z,8.87
2019-03-02T08:57:58.624Z,8.89
2019-03-02T09:00:28.742Z,8.90
2019-03-02T09:03:00.402Z,8.91
2019-03-02T09:05:43.347Z,8.91
2019-03-02T09:08:02.547Z,8.93
2019-03-02T09:10:32.632Z,8.94
2019-03-02T09:13:02.525Z,8.98
2019-03-02T09:15:32.542Z,9.01
2019-03-02T09:18:02.842Z,9.05
2019-03-02T09:20:35.733Z,9.08
2019-03-02T09:23:04.449Z,9.13
2019-03-02T09:25:35.276Z,9.16
2019-03-02T09:28:05.349Z,9.20
2019-03-02T09:30:36.293Z,9.21
2019-03-02T09:33:06.262Z,9.24
2019-03-02T09:35:36.278Z,9.26
2019-03-02T09:38:06.479Z,9.27
2019-03-02T09:40:36.413Z,9.30
2019-03-02T09:43:06.393Z,9.32
2019-03-02T09:45:36.337Z,9.36
2019-03-02T09:48:07.927Z,9.40
2019-03-02T09:50:38.284Z,9.41
2019-03-02T09:53:08.632Z,9.41
2019-03-02T09:55:38.769Z,9.45
2019-03-02T09:58:08.722Z,9.48
2019-03-02T10:00:39.022Z,9.50
2019-03-02T10:03:09.300Z,9.53
2019-03-02T10:05:39.173Z,9.56
2019-03-02T10:08:09.789Z,9.59
2019-03-02T10:10:40.837Z,9.61
2019-03-02T10:13:10.788Z,9.65
2019-03-02T10:15:40.752Z,9.71
2019-03-02T10:18:13.962Z,9.75
2019-03-02T10:20:43.665Z,9.78
2019-03-02T10:23:13.950Z,9.80
2019-03-02T10:25:43.874Z,9.82
2019-03-02T10:28:14.077Z,9.82
2019-03-02T10:30:44.081Z,9.83
2019-03-02T10:33:14.050Z,9.85
2019-03-02T10:35:44.004Z,9.90
2019-03-02T10:38:18.946Z,9.96
2019-03-02T10:40:47.535Z,10.03
2019-03-02T10:43:17.526Z,10.10
2019-03-02T10:45:48.360Z,10.16
2019-03-02T10:48:18.171Z,10.23
2019-03-02T10:50:48.143Z,10.28
2019-03-02T10:53:20.758Z,10.31
2019-03-02T10:55:50.126Z,10.34
2019-03-02T10:58:20.102Z,10.34
2019-03-02T11:00:50.554Z,10.35
2019-03-02T11:03:20.595Z,10.37
2019-03-02T11:06:00.277Z,10.38
2019-03-02T11:08:50.653Z,10.39
2019-03-02T11:11:38.311Z,10.42
2019-03-02T11:14:17.121Z,10.48
2019-03-02T11:16:56.044Z,10.57
2019-03-02T11:19:47.435Z,10.70
2019-03-02T11:22:38.303Z,10.79
2019-03-02T11:25:25.210Z,10.96
2019-03-02T11:28:13.348Z,11.09
2019-03-02T11:31:02.225Z,11.20
2019-03-02T11:34:00.398Z,11.32
2019-03-02T11:36:49.335Z,11.50
2019-03-02T11:39:33.386Z,11.65
2019-03-02T11:42:25.099Z,11.74
2019-03-02T11:45:17.346Z,11.86
2019-03-02T11:48:13.558Z,11.97
2019-03-02T11:50:54.491Z,12.03
2019-03-02T11:53:48.748Z,12.03
2019-03-02T11:56:42.994Z,12.02
2019-03-02T11:59:26.920Z,12.01
2019-03-02T12:02:15.651Z,11.93
2019-03-02T12:04:59.426Z,11.90
2019-03-02T12:07:48.617Z,11.87
2019-03-02T12:10:30.445Z,11.85
2019-03-02T12:13:13.922Z,11.87
2019-03-02T12:16:02.085Z,11.90
2019-03-02T12:18:41.285Z,11.92
2019-03-02T12:21:26.674Z,11.91
2019-03-02T12:24:24.705Z,11.90
2019-03-02T12:27:22.298Z,11.92
2019-03-02T12:30:15.033Z,11.94
2019-03-02T12:33:09.886Z,12.02
2019-03-02T12:35:52.594Z,12.09
2019-03-02T12:39:00.196Z,12.24
2019-03-02T12:41:52.568Z,12.44
2019-03-02T12:44:41.286Z,12.67
2019-03-02T12:47:33.303Z,12.83
2019-03-02T12:50:23.136Z,12.93
2019-03-02T12:53:24.558Z,13.03
2019-03-02T12:56:15.463Z,13.03
2019-03-02T12:58:55.405Z,12.94
2019-03-02T13:01:48.334Z,12.82
2019-03-02T13:04:35.900Z,12.71
2019-03-02T13:07:14.292Z,12.64
2019-03-02T13:09:59.965Z,12.55
2019-03-02T13:13:07.014Z,12.51
2019-03-02T13:15:50.117Z,12.47
2019-03-02T13:18:51.403Z,12.43
2019-03-02T13:21:29.933Z,12.40
2019-03-02T13:24:19.163Z,12.34
2019-03-02T13:27:08.291Z,12.31
2019-03-02T13:29:49.167Z,12.31
2019-03-02T13:32:30.115Z,12.28
2019-03-02T13:35:08.243Z,12.24
2019-03-02T13:38:06.427Z,12.21
2019-03-02T13:40:54.125Z,12.19
2019-03-02T13:43:39.494Z,12.18
2019-03-02T13:46:35.911Z,12.15
2019-03-02T13:49:43.521Z,12.13
2019-03-02T13:52:28.568Z,12.13
2019-03-02T13:55:17.536Z,12.12
2019-03-02T13:58:19.320Z,12.10
2019-03-02T14:01:09.760Z,12.08
2019-03-02T14:03:46.891Z,12.05
2019-03-02T14:06:39.766Z,12.03
2019-03-02T14:09:28.811Z,12.01
2019-03-02T14:12:19.708Z,11.97
2019-03-02T14:15:06.572Z,11.96
2019-03-02T14:17:55.845Z,11.95
2019-03-02T14:20:42.956Z,11.90
2019-03-02T14:23:32.189Z,11.92
2019-03-02T14:26:23.967Z,12.01
2019-03-02T14:29:03.862Z,12.11
2019-03-02T14:31:41.029Z,12.15
2019-03-02T14:34:24.409Z,12.16
2019-03-02T14:37:02.785Z,12.15
2019-03-02T14:40:00.688Z,12.10
2019-03-02T14:42:50.410Z,12.04
2019-03-02T14:45:35.711Z,12.00
2019-03-02T14:48:18.545Z,11.96
2019-03-02T14:50:55.183Z,11.92
2019-03-02T14:54:09.467Z,11.89
2019-03-02T14:57:05.851Z,11.86
2019-03-02T15:00:07.284Z,11.83
2019-03-02T15:02:55.692Z,11.83
2019-03-02T15:05:39.520Z,11.78
2019-03-02T15:08:21.324Z,11.77
2019-03-02T15:11:05.223Z,11.75
2019-03-02T15:14:05.592Z,11.74
2019-03-02T15:16:47.809Z,11.74
2019-03-02T15:19:27.189Z,11.72
2019-03-02T15:22:05.050Z,11.68
2019-03-02T15:24:55.733Z,11.62
2019-03-02T15:27:48.911Z,11.61
2019-03-02T15:30:32.573Z,11.58
2019-03-02T15:33:24.507Z,11.53
2019-03-02T15:36:11.900Z,11.50
2019-03-02T15:39:04.164Z,11.45
2019-03-02T15:42:09.973Z,11.37
2019-03-02T15:45:09.711Z,11.28
2019-03-02T15:48:05.471Z,11.22
2019-03-02T15:50:41.330Z,11.18
2019-03-02T15:53:20.298Z,11.12
2019-03-02T15:56:07.286Z,11.09
2019-03-02T15:58:55.726Z,11.09
2019-03-02T16:01:51.312Z,11.09
2019-03-02T16:04:28.197Z,11.08
2019-03-02T16:07:03.835Z,11.08
2019-03-02T16:09:51.756Z,11.07
2019-03-02T16:12:40.880Z,11.02
2019-03-02T16:15:33.695Z,11.00
2019-03-02T16:18:17.450Z,11.00
2019-03-02T16:20:53.501Z,10.98
2019-03-02T16:23:47.153Z,11.00
2019-03-02T16:26:29.111Z,10.99
2019-03-02T16:29:24.501Z,10.99
2019-03-02T16:32:01.452Z,10.99
2019-03-02T16:34:49.187Z,10.98
2019-03-02T16:37:50.057Z,11.01
2019-03-02T16:40:54.171Z,10.98
2019-03-02T16:43:33.395Z,10.97
2019-03-02T16:46:16.352Z,10.96
2019-03-02T16:49:09.956Z,10.96
2019-03-02T16:51:50.932Z,10.92
2019-03-02T16:54:40.309Z,10.80
2019-03-02T16:57:30.781Z,10.73
2019-03-02T17:00:20.849Z,10.66
2019-03-02T17:03:09.029Z,10.56
2019-03-02T17:06:05.498Z,10.53
2019-03-02T17:08:48.050Z,10.51
2019-03-02T17:11:25.328Z,10.50
2019-03-02T17:14:09.179Z,10.49
2019-03-02T17:16:54.447Z,10.46
2019-03-02T17:19:32.072Z,10.44
2019-03-02T17:22:16.394Z,10.44
2019-03-02T17:25:12.260Z,10.43
2019-03-02T17:27:59.725Z,10.40
2019-03-02T17:30:42.078Z,10.40
2019-03-02T17:33:34.999Z,10.40
2019-03-02T17:36:24.703Z,10.40
2019-03-02T17:39:06.264Z,10.46
2019-03-02T17:41:59.000Z,10.46
2019-03-02T17:44:51.296Z,10.48
2019-03-02T17:47:30.612Z,10.52
2019-03-02T17:50:07.561Z,10.53
2019-03-02T17:52:54.380Z,10.54
2019-03-02T17:55:37.720Z,10.57
2019-03-02T17:58:28.050Z,10.57
2019-03-02T18:01:19.156Z,10.59
2019-03-02T18:04:10.670Z,10.58
2019-03-02T18:06:47.315Z,10.57
2019-03-02T18:09:35.506Z,10.57
2019-03-02T18:12:29.464Z,10.57
2019-03-02T18:15:17.019Z,10.58
2019-03-02T18:18:01.043Z,10.58
2019-03-02T18:20:34.462Z,10.60
2019-03-02T18:23:04.783Z,10.58
2019-03-02T18:25:34.914Z,10.52
2019-03-02T18:28:05.756Z,10.52
2019-03-02T18:30:38.923Z,10.50
2019-03-02T18:33:18.571Z,10.51
2019-03-02T18:35:48.822Z,10.50
2019-03-02T18:38:19.057Z,10.51
2019-03-02T18:40:49.071Z,10.49
2019-03-02T18:43:18.946Z,10.49
2019-03-02T18:45:49.092Z,10.45
2019-03-02T18:48:45.302Z,10.46
2019-03-02T18:51:35.496Z,10.41
2019-03-02T18:54:14.479Z,10.42
2019-03-02T18:56:44.972Z,10.43
2019-03-02T18:59:15.238Z,10.47
2019-03-02T19:01:46.488Z,10.50
2019-03-02T19:04:18.146Z,10.52
2019-03-02T19:06:49.078Z,10.54
2019-03-02T19:09:19.409Z,10.54
2019-03-02T19:11:51.270Z,10.53
2019-03-02T19:14:22.498Z,10.54
2019-03-02T19:16:52.481Z,10.54
2019-03-02T19:19:22.509Z,10.55
2019-03-02T19:21:52.473Z,10.54
2019-03-02T19:24:22.495Z,10.55
2019-03-02T19:26:53.658Z,10.57
2019-03-02T19:29:23.634Z,10.56
2019-03-02T19:31:53.634Z,10.57
2019-03-02T19:34:24.727Z,10.57
2019-03-02T19:36:54.676Z,10.54
2019-03-02T19:39:25.827Z,10.54
2019-03-02T19:41:55.778Z,10.54
2019-03-02T19:44:25.745Z,10.55
2019-03-02T19:46:55.777Z,10.53
2019-03-02T19:49:26.432Z,10.53
2019-03-02T19:51:56.727Z,10.52
2019-03-02T19:54:26.887Z,10.54
2019-03-02T19:56:56.919Z,10.53
2019-03-02T19:59:26.829Z,10.53
2019-03-02T20:01:57.206Z,10.48
2019-03-02T20:04:27.242Z,10.45
2019-03-02T20:06:57.205Z,10.47
2019-03-02T20:09:27.332Z,10.46
2019-03-02T20:11:57.765Z,10.46
2019-03-02T20:14:27.915Z,10.46
2019-03-02T20:16:57.934Z,10.45
2019-03-02T20:19:27.887Z,10.44
2019-03-02T20:21:59.539Z,10.46
2019-03-02T20:24:29.544Z,10.48
2019-03-02T20:26:59.572Z,10.51
2019-03-02T20:29:29.685Z,10.48
2019-03-02T20:32:00.014Z,10.47
2019-03-02T20:34:30.259Z,10.44
2019-03-02T20:37:00.274Z,10.44
2019-03-02T20:39:30.616Z,10.47
2019-03-02T20:42:00.905Z,10.49
2019-03-02T20:44:31.381Z,10.49
2019-03-02T20:47:01.728Z,10.52
2019-03-02T20:49:31.914Z,10.53
2019-03-02T20:52:02.683Z,10.54
2019-03-02T20:54:33.091Z,10.54
2019-03-02T20:57:03.074Z,10.55
2019-03-02T20:59:33.569Z,10.57
2019-03-02T21:02:03.456Z,10.58
2019-03-02T21:04:33.856Z,10.60
2019-03-02T21:07:03.985Z,10.62
2019-03-02T21:09:34.354Z,10.61
2019-03-02T21:12:04.287Z,10.61
2019-03-02T21:14:34.706Z,10.60
2019-03-02T21:17:04.807Z,10.63
2019-03-02T21:19:35.640Z,10.61
2019-03-02T21:22:05.598Z,10.63
2019-03-02T21:24:36.020Z,10.63
2019-03-02T21:27:06.095Z,10.64
2019-03-02T21:29:36.473Z,10.62
2019-03-02T21:32:28.267Z,10.61
2019-03-02T21:34:58.297Z,10.60
2019-03-02T21:37:28.419Z,10.60
2019-03-02T21:39:58.421Z,10.60
2019-03-02T21:42:28.390Z,10.61
2019-03-02T21:44:58.693Z,10.61
2019-03-02T21:47:29.358Z,10.61
2019-03-02T21:49:59.699Z,10.64
2019-03-02T21:52:30.424Z,10.65
2019-03-02T21:55:00.435Z,10.69
2019-03-02T21:57:30.777Z,10.68
2019-03-02T22:00:00.809Z,10.67
2019-03-02T22:02:32.239Z,10.63
2019-03-02T22:05:02.211Z,10.62
2019-03-02T22:07:32.374Z,10.56
2019-03-02T22:10:02.334Z,10.54
2019-03-02T22:12:32.854Z,10.56
2019-03-02T22:15:03.096Z,10.53
2019-03-02T22:17:33.258Z,10.50
2019-03-02T22:20:03.231Z,10.45
2019-03-02T22:22:33.488Z,10.43
2019-03-02T22:25:03.465Z,10.44
2019-03-02T22:27:33.354Z,10.44
2019-03-02T22:30:03.361Z,10.41
2019-03-02T22:32:34.399Z,10.39
2019-03-02T22:35:04.419Z,10.36
2019-03-02T22:37:34.390Z,10.36
2019-03-02T22:40:04.567Z,10.37
2019-03-02T22:42:34.524Z,10.36
2019-03-02T22:45:05.216Z,10.39
2019-03-02T22:47:35.173Z,10.37
2019-03-02T22:50:06.671Z,10.39
2019-03-02T22:52:36.630Z,10.37
2019-03-02T22:55:07.957Z,10.36
2019-03-02T22:57:38.258Z,10.36
2019-03-02T23:00:51.882Z,10.39
2019-03-02T23:03:21.399Z,10.40
2019-03-02T23:05:51.278Z,10.44
2019-03-02T23:08:22.482Z,10.44
2019-03-02T23:10:52.575Z,10.48
2019-03-02T23:13:22.455Z,10.48
2019-03-02T23:15:52.323Z,10.47
2019-03-02T23:18:22.269Z,10.49
2019-03-02T23:20:52.070Z,10.51
2019-03-02T23:23:21.929Z,10.54
2019-03-02T23:25:51.873Z,10.54
2019-03-02T23:28:21.901Z,10.57
2019-03-02T23:30:51.857Z,10.60
2019-03-02T23:33:22.664Z,10.60
2019-03-02T23:35:52.608Z,10.61
2019-03-02T23:38:22.493Z,10.61
2019-03-02T23:40:52.461Z,10.60
2019-03-02T23:43:22.417Z,10.58
2019-03-02T23:45:52.297Z,10.56
2019-03-02T23:48:22.262Z,10.53
2019-03-02T23:50:52.234Z,10.51
2019-03-02T23:53:22.103Z,10.48
2019-03-02T23:55:52.056Z,10.46
2019-03-02T23:58:21.932Z,10.45
